Arroyo Seco, New Mexico
Current Conditions -  °F | °C
As of 7:35 PM on Sunday 21 Dec 2014 (Local Time) from KSKX Reporting Station
Overcast Overcast  
Wind Chill: 27°   Ceiling: 3200
Heat Index: 34°   Visibility: 10mi
Dew Point: 25°   Wind: 8mph
Humidity: 70%   Direction: 230°SW
Pressure: 29.89"   Gusts: NA
Location:  36.52°N, 105.57°W
Report Text: KSKX 220235Z AUTO 23007KT 10SM OVC032 01/M04 A2989 RMK AO1
Loading
Personal Weather Stations






























Interactive Weather Map New forecast layout! Learn more

10-Day Weather Forecast

Advertisements
Track Severe Weather on mobile